Morforte De Lemos, Spain
Current Conditions -  °F | °C
As of 1:30 PM on Friday 19 Dec 2014 (Local Time) from LEST Reporting Station
Overcast Overcast  
Wind Chill:   Ceiling: 2400
Heat Index:   Visibility: 4mi
Dew Point:   Wind: 3mph
Humidity: 93%   Direction: 120°ESE
Pressure: 30.53"   Gusts: NA
Location:  42.52°N, 7.5°W
Report Text: LEST 191230Z 12003KT 080V240 6000 OVC024 08/07 Q1034 TEMPO 3000 BR BKN010
Loading
Personal Weather Stations






























Interactive Weather Map New forecast layout! Learn more

10-Day Weather Forecast

Advertisements
Track Severe Weather on mobile